sensor_id;sensor_type;location;lat;lon;timestamp;P1;durP1;ratioP1;P2;durP2;ratioP2
1925;SDS011;964;42.606;23.588;2022-09-03T00:01:34;8.33;;;6.20;;
1925;SDS011;964;42.606;23.588;2022-09-03T00:04:06;7.57;;;6.00;;
1925;SDS011;964;42.606;23.588;2022-09-03T00:06:38;6.17;;;5.47;;
1925;SDS011;964;42.606;23.588;2022-09-03T00:09:11;6.87;;;4.60;;
1925;SDS011;964;42.606;23.588;2022-09-03T00:11:46;7.00;;;5.20;;
1925;SDS011;964;42.606;23.588;2022-09-03T00:14:18;8.80;;;5.07;;
1925;SDS011;964;42.606;23.588;2022-09-03T00:16:49;7.77;;;5.73;;
1925;SDS011;964;42.606;23.588;2022-09-03T00:19:20;11.53;;;5.90;;
1925;SDS011;964;42.606;23.588;2022-09-03T00:21:50;8.70;;;5.53;;
1925;SDS011;964;42.606;23.588;2022-09-03T00:24:23;8.03;;;5.47;;
1925;SDS011;964;42.606;23.588;2022-09-03T00:26:56;9.73;;;5.70;;
1925;SDS011;964;42.606;23.588;2022-09-03T00:29:30;7.33;;;5.03;;
1925;SDS011;964;42.606;23.588;2022-09-03T00:32:02;6.40;;;4.93;;
1925;SDS011;964;42.606;23.588;2022-09-03T00:34:34;6.63;;;4.77;;
1925;SDS011;964;42.606;23.588;2022-09-03T00:37:06;7.80;;;5.50;;
1925;SDS011;964;42.606;23.588;2022-09-03T00:39:35;7.27;;;5.57;;
1925;SDS011;964;42.606;23.588;2022-09-03T00:42:13;7.57;;;5.30;;
1925;SDS011;964;42.606;23.588;2022-09-03T00:45:08;7.87;;;5.40;;
1925;SDS011;964;42.606;23.588;2022-09-03T00:47:44;9.13;;;6.67;;
1925;SDS011;964;42.606;23.588;2022-09-03T00:50:24;8.13;;;6.40;;
1925;SDS011;964;42.606;23.588;2022-09-03T00:52:59;9.20;;;6.30;;
1925;SDS011;964;42.606;23.588;2022-09-03T00:55:41;7.90;;;5.63;;
1925;SDS011;964;42.606;23.588;2022-09-03T00:58:21;8.90;;;6.10;;
1925;SDS011;964;42.606;23.588;2022-09-03T01:01:04;6.90;;;5.90;;
1925;SDS011;964;42.606;23.588;2022-09-03T01:03:37;9.00;;;5.43;;
1925;SDS011;964;42.606;23.588;2022-09-03T01:06:16;6.70;;;5.50;;
1925;SDS011;964;42.606;23.588;2022-09-03T01:08:50;9.37;;;5.57;;
1925;SDS011;964;42.606;23.588;2022-09-03T01:11:31;8.83;;;5.43;;
1925;SDS011;964;42.606;23.588;2022-09-03T01:14:13;8.57;;;5.67;;
1925;SDS011;964;42.606;23.588;2022-09-03T01:16:48;6.47;;;5.77;;
1925;SDS011;964;42.606;23.588;2022-09-03T01:19:26;10.90;;;5.63;;
1925;SDS011;964;42.606;23.588;2022-09-03T01:22:29;8.13;;;5.93;;
1925;SDS011;964;42.606;23.588;2022-09-03T01:25:23;8.03;;;5.17;;
1925;SDS011;964;42.606;23.588;2022-09-03T01:28:10;7.17;;;5.50;;
1925;SDS011;964;42.606;23.588;2022-09-03T01:30:52;9.57;;;6.57;;
1925;SDS011;964;42.606;23.588;2022-09-03T01:33:27;7.43;;;5.93;;
1925;SDS011;964;42.606;23.588;2022-09-03T01:36:02;7.63;;;5.20;;
1925;SDS011;964;42.606;23.588;2022-09-03T01:38:38;9.30;;;6.67;;
1925;SDS011;964;42.606;23.588;2022-09-03T01:41:13;11.47;;;5.03;;
1925;SDS011;964;42.606;23.588;2022-09-03T01:44:11;8.60;;;6.00;;
1925;SDS011;964;42.606;23.588;2022-09-03T01:46:45;9.97;;;5.77;;
1925;SDS011;964;42.606;23.588;2022-09-03T01:49:23;9.13;;;5.20;;
1925;SDS011;964;42.606;23.588;2022-09-03T01:51:58;8.03;;;6.13;;
1925;SDS011;964;42.606;23.588;2022-09-03T01:54:37;8.50;;;6.00;;
1925;SDS011;964;42.606;23.588;2022-09-03T01:57:27;9.83;;;5.97;;
1925;SDS011;964;42.606;23.588;2022-09-03T02:00:07;9.87;;;6.77;;
1925;SDS011;964;42.606;23.588;2022-09-03T02:02:37;8.93;;;6.47;;
1925;SDS011;964;42.606;23.588;2022-09-03T02:05:06;9.07;;;6.60;;
1925;SDS011;964;42.606;23.588;2022-09-03T02:07:36;8.77;;;6.77;;
1925;SDS011;964;42.606;23.588;2022-09-03T02:10:05;9.33;;;7.00;;
1925;SDS011;964;42.606;23.588;2022-09-03T02:12:34;8.13;;;6.73;;
1925;SDS011;964;42.606;23.588;2022-09-03T02:15:05;10.30;;;6.30;;
1925;SDS011;964;42.606;23.588;2022-09-03T02:17:36;10.47;;;7.70;;
1925;SDS011;964;42.606;23.588;2022-09-03T02:20:06;9.60;;;7.27;;
1925;SDS011;964;42.606;23.588;2022-09-03T02:22:35;8.33;;;6.57;;
1925;SDS011;964;42.606;23.588;2022-09-03T02:25:03;7.37;;;5.43;;
1925;SDS011;964;42.606;23.588;2022-09-03T02:27:30;9.17;;;6.93;;
1925;SDS011;964;42.606;23.588;2022-09-03T02:29:57;8.40;;;5.83;;
1925;SDS011;964;42.606;23.588;2022-09-03T02:32:27;7.30;;;5.93;;
1925;SDS011;964;42.606;23.588;2022-09-03T02:34:54;8.67;;;6.20;;
1925;SDS011;964;42.606;23.588;2022-09-03T02:37:20;8.23;;;5.80;;
1925;SDS011;964;42.606;23.588;2022-09-03T02:39:47;9.20;;;6.57;;
1925;SDS011;964;42.606;23.588;2022-09-03T02:42:15;13.63;;;8.10;;
1925;SDS011;964;42.606;23.588;2022-09-03T02:44:43;9.80;;;7.57;;
1925;SDS011;964;42.606;23.588;2022-09-03T02:47:14;9.40;;;7.37;;
1925;SDS011;964;42.606;23.588;2022-09-03T02:49:43;12.50;;;8.03;;
1925;SDS011;964;42.606;23.588;2022-09-03T02:52:10;10.30;;;7.90;;
1925;SDS011;964;42.606;23.588;2022-09-03T02:54:37;11.57;;;6.33;;
1925;SDS011;964;42.606;23.588;2022-09-03T02:57:05;11.10;;;8.10;;
1925;SDS011;964;42.606;23.588;2022-09-03T02:59:33;10.13;;;6.77;;
1925;SDS011;964;42.606;23.588;2022-09-03T03:02:00;9.07;;;7.50;;
1925;SDS011;964;42.606;23.588;2022-09-03T03:04:27;9.63;;;6.53;;
1925;SDS011;964;42.606;23.588;2022-09-03T03:06:55;13.87;;;7.10;;
1925;SDS011;964;42.606;23.588;2022-09-03T03:09:22;7.40;;;6.33;;
1925;SDS011;964;42.606;23.588;2022-09-03T03:11:49;12.40;;;6.90;;
1925;SDS011;964;42.606;23.588;2022-09-03T03:14:17;10.10;;;6.77;;
1925;SDS011;964;42.606;23.588;2022-09-03T03:16:44;9.23;;;6.40;;
1925;SDS011;964;42.606;23.588;2022-09-03T03:19:11;11.60;;;7.43;;
1925;SDS011;964;42.606;23.588;2022-09-03T03:21:37;11.47;;;7.80;;
1925;SDS011;964;42.606;23.588;2022-09-03T03:24:06;8.17;;;6.60;;
1925;SDS011;964;42.606;23.588;2022-09-03T03:26:33;11.63;;;7.73;;
1925;SDS011;964;42.606;23.588;2022-09-03T03:29:00;9.17;;;7.27;;
1925;SDS011;964;42.606;23.588;2022-09-03T03:31:30;9.27;;;6.77;;
1925;SDS011;964;42.606;23.588;2022-09-03T03:33:58;8.60;;;6.40;;
1925;SDS011;964;42.606;23.588;2022-09-03T03:36:27;9.70;;;7.20;;
1925;SDS011;964;42.606;23.588;2022-09-03T03:38:55;9.90;;;6.83;;
1925;SDS011;964;42.606;23.588;2022-09-03T03:41:25;8.57;;;6.77;;
1925;SDS011;964;42.606;23.588;2022-09-03T03:43:55;10.37;;;8.57;;
1925;SDS011;964;42.606;23.588;2022-09-03T03:46:23;9.70;;;6.40;;
1925;SDS011;964;42.606;23.588;2022-09-03T03:48:53;9.90;;;7.17;;
1925;SDS011;964;42.606;23.588;2022-09-03T03:51:20;11.60;;;7.70;;
1925;SDS011;964;42.606;23.588;2022-09-03T03:53:47;8.70;;;5.70;;
1925;SDS011;964;42.606;23.588;2022-09-03T03:56:14;11.93;;;6.97;;
1925;SDS011;964;42.606;23.588;2022-09-03T03:58:42;10.67;;;6.70;;
1925;SDS011;964;42.606;23.588;2022-09-03T04:01:10;11.27;;;6.07;;
1925;SDS011;964;42.606;23.588;2022-09-03T04:03:39;9.80;;;6.70;;
1925;SDS011;964;42.606;23.588;2022-09-03T04:06:06;8.57;;;7.00;;
1925;SDS011;964;42.606;23.588;2022-09-03T04:08:34;7.30;;;5.80;;
1925;SDS011;964;42.606;23.588;2022-09-03T04:11:03;10.27;;;6.43;;
1925;SDS011;964;42.606;23.588;2022-09-03T04:13:32;9.57;;;7.13;;
1925;SDS011;964;42.606;23.588;2022-09-03T04:16:02;8.13;;;5.80;;
1925;SDS011;964;42.606;23.588;2022-09-03T04:18:30;10.37;;;6.20;;
1925;SDS011;964;42.606;23.588;2022-09-03T04:20:58;8.93;;;7.03;;
1925;SDS011;964;42.606;23.588;2022-09-03T04:23:28;8.50;;;6.30;;
1925;SDS011;964;42.606;23.588;2022-09-03T04:25:55;8.73;;;6.80;;
1925;SDS011;964;42.606;23.588;2022-09-03T04:28:22;8.70;;;6.20;;
1925;SDS011;964;42.606;23.588;2022-09-03T04:30:48;8.63;;;6.53;;
1925;SDS011;964;42.606;23.588;2022-09-03T04:33:16;7.87;;;5.97;;
1925;SDS011;964;42.606;23.588;2022-09-03T04:35:43;8.83;;;6.90;;
1925;SDS011;964;42.606;23.588;2022-09-03T04:38:10;11.10;;;6.40;;
1925;SDS011;964;42.606;23.588;2022-09-03T04:40:37;10.30;;;7.30;;
1925;SDS011;964;42.606;23.588;2022-09-03T04:43:04;9.40;;;6.37;;
1925;SDS011;964;42.606;23.588;2022-09-03T04:45:31;8.23;;;6.27;;
1925;SDS011;964;42.606;23.588;2022-09-03T04:47:58;8.67;;;6.27;;
1925;SDS011;964;42.606;23.588;2022-09-03T04:50:27;7.77;;;6.20;;
1925;SDS011;964;42.606;23.588;2022-09-03T04:52:58;6.93;;;5.50;;
1925;SDS011;964;42.606;23.588;2022-09-03T04:55:26;7.80;;;5.60;;
1925;SDS011;964;42.606;23.588;2022-09-03T04:57:53;8.90;;;5.83;;
1925;SDS011;964;42.606;23.588;2022-09-03T05:00:19;7.90;;;5.50;;
1925;SDS011;964;42.606;23.588;2022-09-03T05:02:46;7.20;;;5.50;;
1925;SDS011;964;42.606;23.588;2022-09-03T05:05:15;11.83;;;6.97;;
1925;SDS011;964;42.606;23.588;2022-09-03T05:07:44;10.43;;;7.30;;
1925;SDS011;964;42.606;23.588;2022-09-03T05:10:11;7.63;;;5.33;;
1925;SDS011;964;42.606;23.588;2022-09-03T05:12:44;7.87;;;6.00;;
1925;SDS011;964;42.606;23.588;2022-09-03T05:15:11;8.33;;;5.43;;
1925;SDS011;964;42.606;23.588;2022-09-03T05:17:38;6.37;;;5.53;;
1925;SDS011;964;42.606;23.588;2022-09-03T05:20:05;8.40;;;6.33;;
1925;SDS011;964;42.606;23.588;2022-09-03T05:22:32;9.33;;;5.53;;
1925;SDS011;964;42.606;23.588;2022-09-03T05:25:00;8.10;;;6.53;;
1925;SDS011;964;42.606;23.588;2022-09-03T05:27:27;8.67;;;5.87;;
1925;SDS011;964;42.606;23.588;2022-09-03T05:29:54;8.27;;;7.00;;
1925;SDS011;964;42.606;23.588;2022-09-03T05:32:20;8.73;;;6.10;;
1925;SDS011;964;42.606;23.588;2022-09-03T05:34:49;8.27;;;6.53;;
1925;SDS011;964;42.606;23.588;2022-09-03T05:37:15;7.87;;;6.60;;
1925;SDS011;964;42.606;23.588;2022-09-03T05:39:42;9.80;;;6.70;;
1925;SDS011;964;42.606;23.588;2022-09-03T05:42:10;9.00;;;6.77;;
1925;SDS011;964;42.606;23.588;2022-09-03T05:44:39;8.97;;;6.53;;
1925;SDS011;964;42.606;23.588;2022-09-03T05:47:05;8.30;;;6.17;;
1925;SDS011;964;42.606;23.588;2022-09-03T05:49:32;7.47;;;5.50;;
1925;SDS011;964;42.606;23.588;2022-09-03T05:51:59;7.93;;;5.40;;
1925;SDS011;964;42.606;23.588;2022-09-03T05:54:27;8.87;;;6.10;;
1925;SDS011;964;42.606;23.588;2022-09-03T05:56:53;8.03;;;5.80;;
1925;SDS011;964;42.606;23.588;2022-09-03T05:59:21;8.30;;;5.50;;
1925;SDS011;964;42.606;23.588;2022-09-03T06:01:48;7.23;;;6.17;;
1925;SDS011;964;42.606;23.588;2022-09-03T06:04:15;8.17;;;6.03;;
1925;SDS011;964;42.606;23.588;2022-09-03T06:06:43;8.47;;;5.70;;
1925;SDS011;964;42.606;23.588;2022-09-03T06:09:11;7.40;;;5.70;;
1925;SDS011;964;42.606;23.588;2022-09-03T06:11:40;10.57;;;7.30;;
1925;SDS011;964;42.606;23.588;2022-09-03T06:14:07;8.10;;;6.20;;
1925;SDS011;964;42.606;23.588;2022-09-03T06:16:37;7.20;;;6.00;;
1925;SDS011;964;42.606;23.588;2022-09-03T06:19:06;9.93;;;6.60;;
1925;SDS011;964;42.606;23.588;2022-09-03T06:21:34;8.30;;;6.80;;
1925;SDS011;964;42.606;23.588;2022-09-03T06:24:01;9.63;;;7.10;;
1925;SDS011;964;42.606;23.588;2022-09-03T06:26:28;10.57;;;7.00;;
1925;SDS011;964;42.606;23.588;2022-09-03T06:28:55;7.00;;;5.53;;
1925;SDS011;964;42.606;23.588;2022-09-03T06:31:24;8.13;;;5.63;;
1925;SDS011;964;42.606;23.588;2022-09-03T06:33:53;7.93;;;6.27;;
1925;SDS011;964;42.606;23.588;2022-09-03T06:36:20;9.00;;;6.30;;
1925;SDS011;964;42.606;23.588;2022-09-03T06:38:50;8.40;;;5.90;;
1925;SDS011;964;42.606;23.588;2022-09-03T06:41:19;9.93;;;6.07;;
1925;SDS011;964;42.606;23.588;2022-09-03T06:43:49;9.93;;;6.90;;
1925;SDS011;964;42.606;23.588;2022-09-03T06:46:18;8.13;;;6.03;;
1925;SDS011;964;42.606;23.588;2022-09-03T06:48:46;8.37;;;5.53;;
1925;SDS011;964;42.606;23.588;2022-09-03T06:51:14;9.87;;;5.83;;
1925;SDS011;964;42.606;23.588;2022-09-03T06:53:43;7.63;;;5.90;;
1925;SDS011;964;42.606;23.588;2022-09-03T06:56:12;6.23;;;5.07;;
1925;SDS011;964;42.606;23.588;2022-09-03T06:58:41;7.30;;;6.10;;
1925;SDS011;964;42.606;23.588;2022-09-03T07:01:10;7.60;;;5.13;;
1925;SDS011;964;42.606;23.588;2022-09-03T07:03:39;7.53;;;5.17;;
1925;SDS011;964;42.606;23.588;2022-09-03T07:06:07;7.60;;;5.50;;
1925;SDS011;964;42.606;23.588;2022-09-03T07:08:36;7.03;;;5.33;;
1925;SDS011;964;42.606;23.588;2022-09-03T07:11:03;6.33;;;4.97;;
1925;SDS011;964;42.606;23.588;2022-09-03T07:13:34;10.00;;;5.63;;
1925;SDS011;964;42.606;23.588;2022-09-03T07:16:01;6.87;;;5.67;;
1925;SDS011;964;42.606;23.588;2022-09-03T07:18:30;7.07;;;4.87;;
1925;SDS011;964;42.606;23.588;2022-09-03T07:20:58;6.73;;;4.93;;
1925;SDS011;964;42.606;23.588;2022-09-03T07:23:25;6.20;;;5.33;;
1925;SDS011;964;42.606;23.588;2022-09-03T07:25:55;7.00;;;5.33;;
1925;SDS011;964;42.606;23.588;2022-09-03T07:28:22;10.80;;;5.63;;
1925;SDS011;964;42.606;23.588;2022-09-03T07:30:49;6.87;;;4.70;;
1925;SDS011;964;42.606;23.588;2022-09-03T07:33:16;6.90;;;4.87;;
1925;SDS011;964;42.606;23.588;2022-09-03T07:35:44;5.17;;;4.60;;
1925;SDS011;964;42.606;23.588;2022-09-03T07:38:15;6.50;;;5.13;;
1925;SDS011;964;42.606;23.588;2022-09-03T07:40:43;10.97;;;5.63;;
1925;SDS011;964;42.606;23.588;2022-09-03T07:43:11;5.27;;;4.77;;
1925;SDS011;964;42.606;23.588;2022-09-03T07:45:38;6.10;;;4.83;;
1925;SDS011;964;42.606;23.588;2022-09-03T07:48:05;7.23;;;5.57;;
1925;SDS011;964;42.606;23.588;2022-09-03T07:50:31;5.93;;;4.83;;
1925;SDS011;964;42.606;23.588;2022-09-03T07:53:06;7.87;;;5.27;;
1925;SDS011;964;42.606;23.588;2022-09-03T07:55:32;7.07;;;5.10;;
1925;SDS011;964;42.606;23.588;2022-09-03T07:57:59;6.70;;;4.73;;
1925;SDS011;964;42.606;23.588;2022-09-03T08:00:27;5.50;;;4.50;;
1925;SDS011;964;42.606;23.588;2022-09-03T08:02:57;6.70;;;5.30;;
1925;SDS011;964;42.606;23.588;2022-09-03T08:05:30;6.27;;;4.73;;
1925;SDS011;964;42.606;23.588;2022-09-03T08:07:58;6.10;;;5.47;;
1925;SDS011;964;42.606;23.588;2022-09-03T08:10:25;5.83;;;5.23;;
1925;SDS011;964;42.606;23.588;2022-09-03T08:12:54;13.33;;;5.20;;
1925;SDS011;964;42.606;23.588;2022-09-03T08:15:21;6.30;;;4.90;;
1925;SDS011;964;42.606;23.588;2022-09-03T08:17:49;5.47;;;4.97;;
1925;SDS011;964;42.606;23.588;2022-09-03T08:20:16;8.30;;;5.03;;
1925;SDS011;964;42.606;23.588;2022-09-03T08:22:42;7.27;;;4.87;;
1925;SDS011;964;42.606;23.588;2022-09-03T08:25:09;5.80;;;5.17;;
1925;SDS011;964;42.606;23.588;2022-09-03T08:27:36;6.23;;;5.17;;
1925;SDS011;964;42.606;23.588;2022-09-03T08:30:03;6.07;;;5.27;;
1925;SDS011;964;42.606;23.588;2022-09-03T08:32:35;6.93;;;5.50;;
1925;SDS011;964;42.606;23.588;2022-09-03T08:35:05;6.47;;;4.93;;
1925;SDS011;964;42.606;23.588;2022-09-03T08:37:33;8.33;;;5.50;;
1925;SDS011;964;42.606;23.588;2022-09-03T08:40:00;8.30;;;5.90;;
1925;SDS011;964;42.606;23.588;2022-09-03T08:42:31;6.50;;;5.33;;
1925;SDS011;964;42.606;23.588;2022-09-03T08:45:14;8.17;;;5.70;;
1925;SDS011;964;42.606;23.588;2022-09-03T08:47:46;8.50;;;6.20;;
1925;SDS011;964;42.606;23.588;2022-09-03T08:50:18;6.07;;;5.10;;
1925;SDS011;964;42.606;23.588;2022-09-03T08:52:50;7.17;;;5.30;;
1925;SDS011;964;42.606;23.588;2022-09-03T08:55:25;7.17;;;6.20;;
1925;SDS011;964;42.606;23.588;2022-09-03T08:57:55;6.00;;;5.40;;
1925;SDS011;964;42.606;23.588;2022-09-03T09:00:28;7.10;;;5.40;;
1925;SDS011;964;42.606;23.588;2022-09-03T09:03:14;6.23;;;5.40;;
1925;SDS011;964;42.606;23.588;2022-09-03T09:05:53;7.80;;;5.13;;
1925;SDS011;964;42.606;23.588;2022-09-03T09:08:32;5.90;;;5.13;;
1925;SDS011;964;42.606;23.588;2022-09-03T09:11:05;6.10;;;5.30;;
1925;SDS011;964;42.606;23.588;2022-09-03T09:13:40;6.10;;;5.37;;
1925;SDS011;964;42.606;23.588;2022-09-03T09:16:11;6.90;;;5.30;;
1925;SDS011;964;42.606;23.588;2022-09-03T09:18:47;4.70;;;4.30;;
1925;SDS011;964;42.606;23.588;2022-09-03T09:21:27;5.67;;;4.90;;
1925;SDS011;964;42.606;23.588;2022-09-03T09:23:58;6.37;;;5.30;;
1925;SDS011;964;42.606;23.588;2022-09-03T09:26:30;5.57;;;4.30;;
1925;SDS011;964;42.606;23.588;2022-09-03T09:28:58;4.87;;;4.37;;
1925;SDS011;964;42.606;23.588;2022-09-03T09:31:29;4.50;;;4.10;;
1925;SDS011;964;42.606;23.588;2022-09-03T09:33:59;5.43;;;4.50;;
1925;SDS011;964;42.606;23.588;2022-09-03T09:36:41;6.40;;;4.03;;
1925;SDS011;964;42.606;23.588;2022-09-03T09:39:13;5.90;;;4.37;;
1925;SDS011;964;42.606;23.588;2022-09-03T09:41:41;5.13;;;4.63;;
1925;SDS011;964;42.606;23.588;2022-09-03T09:44:17;5.20;;;4.70;;
1925;SDS011;964;42.606;23.588;2022-09-03T09:46:45;5.50;;;5.00;;
1925;SDS011;964;42.606;23.588;2022-09-03T09:49:24;8.17;;;5.17;;
1925;SDS011;964;42.606;23.588;2022-09-03T09:52:02;6.00;;;4.93;;
1925;SDS011;964;42.606;23.588;2022-09-03T09:54:32;6.30;;;5.23;;
1925;SDS011;964;42.606;23.588;2022-09-03T09:56:59;7.40;;;5.37;;
1925;SDS011;964;42.606;23.588;2022-09-03T09:59:27;7.43;;;5.40;;
1925;SDS011;964;42.606;23.588;2022-09-03T10:02:01;5.20;;;4.70;;
1925;SDS011;964;42.606;23.588;2022-09-03T10:04:34;6.00;;;5.40;;
1925;SDS011;964;42.606;23.588;2022-09-03T10:07:03;6.20;;;5.30;;
1925;SDS011;964;42.606;23.588;2022-09-03T10:09:33;4.60;;;4.20;;
1925;SDS011;964;42.606;23.588;2022-09-03T10:12:03;4.87;;;3.97;;
1925;SDS011;964;42.606;23.588;2022-09-03T10:14:40;5.77;;;4.90;;
1925;SDS011;964;42.606;23.588;2022-09-03T10:17:13;4.93;;;4.43;;
1925;SDS011;964;42.606;23.588;2022-09-03T10:19:47;5.50;;;4.60;;
1925;SDS011;964;42.606;23.588;2022-09-03T10:22:51;4.87;;;4.37;;
1925;SDS011;964;42.606;23.588;2022-09-03T10:25:21;6.50;;;4.80;;
1925;SDS011;964;42.606;23.588;2022-09-03T10:27:52;4.83;;;4.30;;
1925;SDS011;964;42.606;23.588;2022-09-03T10:30:19;6.00;;;4.57;;
1925;SDS011;964;42.606;23.588;2022-09-03T10:32:48;4.10;;;3.70;;
1925;SDS011;964;42.606;23.588;2022-09-03T10:35:26;6.57;;;5.37;;
1925;SDS011;964;42.606;23.588;2022-09-03T10:37:59;6.23;;;4.63;;
1925;SDS011;964;42.606;23.588;2022-09-03T10:40:36;6.33;;;4.37;;
1925;SDS011;964;42.606;23.588;2022-09-03T10:43:15;5.27;;;4.37;;
1925;SDS011;964;42.606;23.588;2022-09-03T10:45:55;3.93;;;3.63;;
1925;SDS011;964;42.606;23.588;2022-09-03T10:48:42;5.80;;;4.23;;
1925;SDS011;964;42.606;23.588;2022-09-03T10:51:18;5.17;;;4.67;;
1925;SDS011;964;42.606;23.588;2022-09-03T10:53:54;5.37;;;4.87;;
1925;SDS011;964;42.606;23.588;2022-09-03T10:56:38;4.50;;;4.10;;
1925;SDS011;964;42.606;23.588;2022-09-03T10:59:22;4.80;;;4.40;;
1925;SDS011;964;42.606;23.588;2022-09-03T11:01:59;3.77;;;3.47;;
1925;SDS011;964;42.606;23.588;2022-09-03T11:04:41;5.23;;;4.03;;
1925;SDS011;964;42.606;23.588;2022-09-03T11:07:15;4.40;;;4.00;;
1925;SDS011;964;42.606;23.588;2022-09-03T11:09:49;4.90;;;4.40;;
1925;SDS011;964;42.606;23.588;2022-09-03T11:12:22;4.97;;;4.47;;
1925;SDS011;964;42.606;23.588;2022-09-03T11:14:53;5.40;;;4.80;;
1925;SDS011;964;42.606;23.588;2022-09-03T11:17:27;4.57;;;4.13;;
1925;SDS011;964;42.606;23.588;2022-09-03T11:20:01;4.73;;;4.20;;
1925;SDS011;964;42.606;23.588;2022-09-03T11:22:37;4.27;;;3.87;;
1925;SDS011;964;42.606;23.588;2022-09-03T11:25:07;4.70;;;4.30;;
1925;SDS011;964;42.606;23.588;2022-09-03T11:27:46;4.63;;;4.23;;
1925;SDS011;964;42.606;23.588;2022-09-03T11:30:22;3.83;;;3.53;;
1925;SDS011;964;42.606;23.588;2022-09-03T11:32:54;4.40;;;4.00;;
1925;SDS011;964;42.606;23.588;2022-09-03T11:35:26;4.70;;;4.30;;
1925;SDS011;964;42.606;23.588;2022-09-03T11:38:03;3.57;;;3.27;;
1925;SDS011;964;42.606;23.588;2022-09-03T11:40:33;4.17;;;3.80;;
1925;SDS011;964;42.606;23.588;2022-09-03T11:43:04;4.10;;;3.70;;
1925;SDS011;964;42.606;23.588;2022-09-03T11:45:34;3.50;;;3.20;;
1925;SDS011;964;42.606;23.588;2022-09-03T11:48:15;4.37;;;3.70;;
1925;SDS011;964;42.606;23.588;2022-09-03T11:50:50;4.17;;;3.80;;
1925;SDS011;964;42.606;23.588;2022-09-03T11:53:22;5.50;;;4.17;;
1925;SDS011;964;42.606;23.588;2022-09-03T11:55:54;4.60;;;3.87;;
1925;SDS011;964;42.606;23.588;2022-09-03T11:58:24;4.30;;;3.90;;
1925;SDS011;964;42.606;23.588;2022-09-03T12:00:54;5.07;;;4.57;;
1925;SDS011;964;42.606;23.588;2022-09-03T12:03:24;3.90;;;3.50;;
1925;SDS011;964;42.606;23.588;2022-09-03T12:06:00;3.40;;;3.10;;
1925;SDS011;964;42.606;23.588;2022-09-03T12:08:46;4.93;;;3.97;;
1925;SDS011;964;42.606;23.588;2022-09-03T12:11:34;3.50;;;3.20;;
1925;SDS011;964;42.606;23.588;2022-09-03T12:14:11;4.10;;;3.73;;
1925;SDS011;964;42.606;23.588;2022-09-03T12:16:50;2.90;;;2.70;;
1925;SDS011;964;42.606;23.588;2022-09-03T12:19:26;4.20;;;3.80;;
1925;SDS011;964;42.606;23.588;2022-09-03T12:21:58;3.97;;;3.67;;
1925;SDS011;964;42.606;23.588;2022-09-03T12:24:28;5.30;;;3.30;;
1925;SDS011;964;42.606;23.588;2022-09-03T12:27:01;3.80;;;3.50;;
1925;SDS011;964;42.606;23.588;2022-09-03T12:29:28;4.13;;;3.20;;
1925;SDS011;964;42.606;23.588;2022-09-03T12:32:04;3.80;;;3.23;;
1925;SDS011;964;42.606;23.588;2022-09-03T12:34:32;3.07;;;2.77;;
1925;SDS011;964;42.606;23.588;2022-09-03T12:36:58;3.43;;;3.13;;
1925;SDS011;964;42.606;23.588;2022-09-03T12:39:26;3.30;;;3.10;;
1925;SDS011;964;42.606;23.588;2022-09-03T12:41:58;3.07;;;2.77;;
1925;SDS011;964;42.606;23.588;2022-09-03T12:44:29;3.47;;;3.17;;
1925;SDS011;964;42.606;23.588;2022-09-03T12:47:00;3.47;;;3.10;;
1925;SDS011;964;42.606;23.588;2022-09-03T12:49:33;2.97;;;2.53;;
1925;SDS011;964;42.606;23.588;2022-09-03T12:52:02;3.67;;;3.00;;
1925;SDS011;964;42.606;23.588;2022-09-03T12:54:38;2.77;;;2.57;;
1925;SDS011;964;42.606;23.588;2022-09-03T12:57:13;5.60;;;2.53;;
1925;SDS011;964;42.606;23.588;2022-09-03T12:59:46;3.03;;;2.73;;
1925;SDS011;964;42.606;23.588;2022-09-03T13:02:16;2.93;;;2.67;;
1925;SDS011;964;42.606;23.588;2022-09-03T13:04:48;3.80;;;3.07;;
1925;SDS011;964;42.606;23.588;2022-09-03T13:07:19;2.67;;;2.47;;
1925;SDS011;964;42.606;23.588;2022-09-03T13:09:49;2.63;;;2.43;;
1925;SDS011;964;42.606;23.588;2022-09-03T13:12:21;3.10;;;2.80;;
1925;SDS011;964;42.606;23.588;2022-09-03T13:14:54;2.93;;;2.63;;
1925;SDS011;964;42.606;23.588;2022-09-03T13:17:34;3.97;;;3.50;;
1925;SDS011;964;42.606;23.588;2022-09-03T13:20:22;3.00;;;2.80;;
1925;SDS011;964;42.606;23.588;2022-09-03T13:23:06;2.73;;;2.53;;
1925;SDS011;964;42.606;23.588;2022-09-03T13:25:45;3.43;;;3.20;;
1925;SDS011;964;42.606;23.588;2022-09-03T13:28:25;2.50;;;2.30;;
1925;SDS011;964;42.606;23.588;2022-09-03T13:31:05;3.07;;;2.87;;
1925;SDS011;964;42.606;23.588;2022-09-03T13:33:46;2.80;;;2.60;;
1925;SDS011;964;42.606;23.588;2022-09-03T13:36:18;3.03;;;2.83;;
1925;SDS011;964;42.606;23.588;2022-09-03T13:38:51;2.60;;;2.40;;
1925;SDS011;964;42.606;23.588;2022-09-03T13:41:27;3.73;;;3.03;;
1925;SDS011;964;42.606;23.588;2022-09-03T13:44:04;2.70;;;2.50;;
1925;SDS011;964;42.606;23.588;2022-09-03T13:46:39;2.97;;;2.70;;
1925;SDS011;964;42.606;23.588;2022-09-03T13:49:15;3.03;;;2.80;;
1925;SDS011;964;42.606;23.588;2022-09-03T13:52:10;2.67;;;2.47;;
1925;SDS011;964;42.606;23.588;2022-09-03T13:54:48;2.93;;;2.70;;
1925;SDS011;964;42.606;23.588;2022-09-03T13:57:21;2.87;;;2.60;;
1925;SDS011;964;42.606;23.588;2022-09-03T13:59:57;2.63;;;2.43;;
1925;SDS011;964;42.606;23.588;2022-09-03T14:02:31;2.83;;;2.63;;
1925;SDS011;964;42.606;23.588;2022-09-03T14:05:09;2.70;;;2.50;;
1925;SDS011;964;42.606;23.588;2022-09-03T14:07:51;2.70;;;2.50;;
1925;SDS011;964;42.606;23.588;2022-09-03T14:10:29;2.73;;;2.53;;
1925;SDS011;964;42.606;23.588;2022-09-03T14:13:05;2.93;;;2.73;;
1925;SDS011;964;42.606;23.588;2022-09-03T14:15:43;2.73;;;2.53;;
1925;SDS011;964;42.606;23.588;2022-09-03T14:18:19;3.20;;;2.90;;
1925;SDS011;964;42.606;23.588;2022-09-03T14:20:58;2.90;;;2.70;;
1925;SDS011;964;42.606;23.588;2022-09-03T14:23:32;2.70;;;2.50;;
1925;SDS011;964;42.606;23.588;2022-09-03T14:26:05;2.90;;;2.70;;
1925;SDS011;964;42.606;23.588;2022-09-03T14:28:40;3.20;;;2.90;;
1925;SDS011;964;42.606;23.588;2022-09-03T14:31:15;3.53;;;3.07;;
1925;SDS011;964;42.606;23.588;2022-09-03T14:33:54;2.70;;;2.50;;
1925;SDS011;964;42.606;23.588;2022-09-03T14:36:28;3.20;;;2.90;;
1925;SDS011;964;42.606;23.588;2022-09-03T14:39:10;3.83;;;3.53;;
1925;SDS011;964;42.606;23.588;2022-09-03T14:41:47;4.63;;;3.60;;
1925;SDS011;964;42.606;23.588;2022-09-03T14:44:29;3.83;;;3.53;;
1925;SDS011;964;42.606;23.588;2022-09-03T14:47:12;3.67;;;3.37;;
1925;SDS011;964;42.606;23.588;2022-09-03T14:49:57;4.03;;;3.63;;
1925;SDS011;964;42.606;23.588;2022-09-03T14:52:44;5.23;;;3.40;;
1925;SDS011;964;42.606;23.588;2022-09-03T14:55:24;3.80;;;3.30;;
1925;SDS011;964;42.606;23.588;2022-09-03T14:58:10;4.10;;;3.70;;
1925;SDS011;964;42.606;23.588;2022-09-03T15:00:46;3.60;;;3.30;;
1925;SDS011;964;42.606;23.588;2022-09-03T15:06:18;2.93;;;2.73;;
1925;SDS011;964;42.606;23.588;2022-09-03T15:09:09;3.80;;;2.63;;
1925;SDS011;964;42.606;23.588;2022-09-03T15:11:47;2.77;;;2.50;;
1925;SDS011;964;42.606;23.588;2022-09-03T15:14:21;3.97;;;3.37;;
1925;SDS011;964;42.606;23.588;2022-09-03T15:16:55;3.83;;;3.30;;
1925;SDS011;964;42.606;23.588;2022-09-03T15:19:34;4.07;;;2.77;;
1925;SDS011;964;42.606;23.588;2022-09-03T15:22:12;3.43;;;3.00;;
1925;SDS011;964;42.606;23.588;2022-09-03T15:24:49;4.20;;;2.90;;
1925;SDS011;964;42.606;23.588;2022-09-03T15:27:41;3.20;;;2.90;;
1925;SDS011;964;42.606;23.588;2022-09-03T15:30:21;3.60;;;2.80;;
1925;SDS011;964;42.606;23.588;2022-09-03T15:32:50;3.00;;;2.77;;
1925;SDS011;964;42.606;23.588;2022-09-03T15:35:41;2.90;;;2.70;;
1925;SDS011;964;42.606;23.588;2022-09-03T15:38:24;2.63;;;2.43;;
1925;SDS011;964;42.606;23.588;2022-09-03T15:41:01;2.93;;;2.50;;
1925;SDS011;964;42.606;23.588;2022-09-03T15:43:32;3.67;;;3.17;;
1925;SDS011;964;42.606;23.588;2022-09-03T15:45:59;3.27;;;2.97;;
1925;SDS011;964;42.606;23.588;2022-09-03T15:48:35;3.00;;;2.70;;
1925;SDS011;964;42.606;23.588;2022-09-03T15:51:15;2.97;;;2.67;;